AQQ10 IFIS: Internet Flight Information System
logo dgac
Miércoles 05 de Octubre del 2022
Buscar por aerodromo o helipuerto
Ingrese nombre de aeródromo, localidad o designador OACI:
METAR del 05-10-2022 a las 01:00 UTC
Para mayor información visite www.meteochile.cl
METAR SCTN 050100Z AUTO 06003KT 9999 FEW025 09/09 Q1017
Viento: dirección 060 grados, velocidad 3 nudos
Visibilidad: 10 km o más
Nubes: Escasa nubosidad a 2500 pies sobre el nivel del aeródromo
Temperatura: 9 °C
Rocío: 9 °C
Humedad_relativa: 100%
Presión: 1017 hPa
METAR del 05-10-2022 a las 00:00 UTC
Para mayor información visite www.meteochile.cl
METAR SCTN 050000Z AUTO 02003KT 350V050 //// R/////// // FEW029 BKN042 10/09 Q1017
Viento: dirección 020 grados, velocidad 3 nudos
Viento con dirección variable entre 350 y 050 grados
Nubes: Escasa nubosidad a 2900 pies sobre el nivel del aeródromo
Nubes: Nublado a 4200 pies sobre el nivel del aeródromo
Temperatura: 10 °C
Rocío: 9 °C
Humedad_relativa: 94%
Presión: 1017 hPa
METAR del 04-10-2022 a las 23:00 UTC
Para mayor información visite www.meteochile.cl
METAR SCTN 042300Z AUTO 35004KT //// R/////// // BKN028 11/10 Q1016
Viento: dirección 350 grados, velocidad 4 nudos
Nubes: Nublado a 2800 pies sobre el nivel del aeródromo
Temperatura: 11 °C
Rocío: 10 °C
Humedad_relativa: 94%
Presión: 1016 hPa
METAR del 04-10-2022 a las 22:00 UTC
Para mayor información visite www.meteochile.cl
METAR SCTN 042200Z AUTO 36004KT //// R/////// // NCD 11/09 Q1016
Viento: dirección 360 grados, velocidad 4 nudos
Temperatura: 11 °C
Rocío: 9 °C
Humedad_relativa: 87%
Presión: 1016 hPa
METAR del 04-10-2022 a las 21:00 UTC
Para mayor información visite www.meteochile.cl
METAR SCTN 042100Z AUTO 35006KT //// R/////// // FEW008 12/11 Q1015
Viento: dirección 350 grados, velocidad 6 nudos
Nubes: Escasa nubosidad a 800 pies sobre el nivel del aeródromo
Temperatura: 12 °C
Rocío: 11 °C
Humedad_relativa: 94%
Presión: 1015 hPa
METAR del 04-10-2022 a las 20:00 UTC
Para mayor información visite www.meteochile.cl
METAR SCTN 042000Z 34007KT 310V020 9999 FEW009 BKN030 11/11 Q1014
Viento: dirección 340 grados, velocidad 7 nudos
Viento con dirección variable entre 310 y 020 grados
Visibilidad: 10 km o más
Nubes: Escasa nubosidad a 900 pies sobre el nivel del aeródromo
Nubes: Nublado a 3000 pies sobre el nivel del aeródromo
Temperatura: 11 °C
Rocío: 11 °C
Humedad_relativa: 100%
Presión: 1014 hPa
METAR del 04-10-2022 a las 19:00 UTC
Para mayor información visite www.meteochile.cl
METAR SCTN 041900Z 33007KT 9999 SCT008 OVC025 11/11 Q1014
Viento: dirección 330 grados, velocidad 7 nudos
Visibilidad: 10 km o más
Nubes: Nubosidad parcial a 800 pies sobre el nivel del aeródromo
Nubes: Cubierto a 2500 pies sobre el nivel del aeródromo
Temperatura: 11 °C
Rocío: 11 °C
Humedad_relativa: 100%
Presión: 1014 hPa
METAR del 04-10-2022 a las 18:00 UTC
Para mayor información visite www.meteochile.cl
METAR SCTN 041800Z 34009KT 8000 -RA SCT008 OVC020 11/11 Q1014
Viento: dirección 340 grados, velocidad 9 nudos
Visibilidad: 8000 metros
Débil Lluvia
Nubes: Nubosidad parcial a 800 pies sobre el nivel del aeródromo
Nubes: Cubierto a 2000 pies sobre el nivel del aeródromo
Temperatura: 11 °C
Rocío: 11 °C
Humedad_relativa: 100%
Presión: 1014 hPa
METAR del 04-10-2022 a las 17:00 UTC
Para mayor información visite www.meteochile.cl
METAR SCTN 041700Z 34010KT 310V010 8000 -RA SCT008 OVC015 11/11 Q1013
Viento: dirección 340 grados, velocidad 10 nudos
Viento con dirección variable entre 310 y 010 grados
Visibilidad: 8000 metros
Débil Lluvia
Nubes: Nubosidad parcial a 800 pies sobre el nivel del aeródromo
Nubes: Cubierto a 1500 pies sobre el nivel del aeródromo
Temperatura: 11 °C
Rocío: 11 °C
Humedad_relativa: 100%
Presión: 1013 hPa
METAR del 04-10-2022 a las 16:00 UTC
Para mayor información visite www.meteochile.cl
METAR SCTN 041600Z 34010KT 5000 -RA SCT005 OVC012 11/11 Q1014
Viento: dirección 340 grados, velocidad 10 nudos
Visibilidad: 5000 metros
Débil Lluvia
Nubes: Nubosidad parcial a 500 pies sobre el nivel del aeródromo
Nubes: Cubierto a 1200 pies sobre el nivel del aeródromo
Temperatura: 11 °C
Rocío: 11 °C
Humedad_relativa: 100%
Presión: 1014 hPa